Harleysville, PA

2:32 PM EDT on March 30, 2015 (GMT -0400)
Pottstown Limerick | | Change Station
CLOSE
Current Station
Airport
Location: Pottstown,
Elevation: 308 ft
Nearby Weather Stations

Elev 308 ft 40.24 °N, 75.55 °W | Updated 38 minutes ago

Partly Cloudy
Partly Cloudy
51 °F
Feels Like 51 °F
N
14
Wind Variable Wind from West
Gusts 22 mph

Today
High -- | Low -- °F
--% Chance of Precip.
Yesterday
High -- | Low -- °F
Precip. -- in
6:49 AM 7:23 PM
Waxing Gibbous, 81% visible
Pressure 29.84 in
Visibility 10.0 miles
Clouds Overcast 7000 ft
Dew Point 30 °F
Humidity 44%
Rainfall 0.00 in
Snow Depth Not available.
UV 2 out of 12
Pollen 8.40 out of 12
Air Quality Not available.
Flu Activity Not available.
METAR KPTW 301754Z AUTO 28012G19KT 10SM OVC070 11/M01 A2984 RMK AO2 SLP104 T01061011 10111 20028 55009

More Conditions Fewer Conditions

Pressure 29.84 in
Visibility 10.0 miles
Clouds Overcast 7000 ft
Dew Point 30 °F
Humidity 44%
Rainfall 0.00 in
Snow Depth Not available.
UV 2 out of 12
Pollen 8.40 out of 12
Air Quality Not available.
Flu Activity Not available.
METAR KPTW 301754Z AUTO 28012G19KT 10SM OVC070 11/M01 A2984 RMK AO2 SLP104 T01061011 10111 20028 55009

More Conditions Fewer Conditions

10-Day Weather Forecast

Almanac

Astronomy

Mar. 30, 2015 Rise Set
Actual Time
Civil Twilight
Nautical Twilight
Astronomical Twilight
Moon
Length of Visible Light
Length of Day
Tomorrow will be .
, % of the Moon is Illuminated

Today's Extremes

State Highs State Lows

Community

WunderPhotos

Upload Photos

1,809,562 photos uploaded!

WunderBlogs® & News

Nearby

Air Quality

  Air Quality AQ Index Pollutant
Not available.

Snow Depth

Station Depth Elevation

Earthquake Activity

City Distance Mag. Time & Date
Minimum magnitude displayed is 2.5.

Coastal Water Temperatures

Place Temperature

Stations

Nearby Weather Stations

Station Location Temp. Windchill Dew Point Humidity Wind Precip. Elev Updated Type